sensor_id;sensor_type;location;lat;lon;timestamp;temperature;humidity
9658;DHT22;4867;48.112;11.622;2023-07-28T00:01:19;16.50;99.90
9658;DHT22;4867;48.112;11.622;2023-07-28T00:03:46;16.50;99.90
9658;DHT22;4867;48.112;11.622;2023-07-28T00:06:13;16.40;99.90
9658;DHT22;4867;48.112;11.622;2023-07-28T00:08:41;16.30;99.90
9658;DHT22;4867;48.112;11.622;2023-07-28T00:11:10;16.30;99.90
9658;DHT22;4867;48.112;11.622;2023-07-28T00:13:39;16.20;99.90
9658;DHT22;4867;48.112;11.622;2023-07-28T00:16:07;16.20;99.90
9658;DHT22;4867;48.112;11.622;2023-07-28T00:18:35;16.10;99.90
9658;DHT22;4867;48.112;11.622;2023-07-28T00:21:04;16.10;99.90
9658;DHT22;4867;48.112;11.622;2023-07-28T00:23:32;16.10;99.90
9658;DHT22;4867;48.112;11.622;2023-07-28T00:25:59;16.10;99.90
9658;DHT22;4867;48.112;11.622;2023-07-28T00:28:26;16.10;99.90
9658;DHT22;4867;48.112;11.622;2023-07-28T00:30:54;16.00;99.90
9658;DHT22;4867;48.112;11.622;2023-07-28T00:33:21;16.00;99.90
9658;DHT22;4867;48.112;11.622;2023-07-28T00:35:49;15.90;99.90
9658;DHT22;4867;48.112;11.622;2023-07-28T00:38:16;15.90;99.90
9658;DHT22;4867;48.112;11.622;2023-07-28T00:40:43;15.90;99.90
9658;DHT22;4867;48.112;11.622;2023-07-28T00:43:12;16.00;99.90
9658;DHT22;4867;48.112;11.622;2023-07-28T00:45:39;15.90;99.90
9658;DHT22;4867;48.112;11.622;2023-07-28T00:48:11;16.00;99.90
9658;DHT22;4867;48.112;11.622;2023-07-28T00:50:45;16.00;99.90
9658;DHT22;4867;48.112;11.622;2023-07-28T00:53:12;15.90;99.90
9658;DHT22;4867;48.112;11.622;2023-07-28T00:55:41;15.90;99.90
9658;DHT22;4867;48.112;11.622;2023-07-28T00:58:11;15.90;99.90
9658;DHT22;4867;48.112;11.622;2023-07-28T01:00:38;15.90;99.90
9658;DHT22;4867;48.112;11.622;2023-07-28T01:03:05;15.90;99.90
9658;DHT22;4867;48.112;11.622;2023-07-28T01:06:05;15.90;99.90
9658;DHT22;4867;48.112;11.622;2023-07-28T01:08:51;15.90;99.90
9658;DHT22;4867;48.112;11.622;2023-07-28T01:11:21;15.90;99.90
9658;DHT22;4867;48.112;11.622;2023-07-28T01:13:48;16.00;99.90
9658;DHT22;4867;48.112;11.622;2023-07-28T01:16:16;15.90;99.90
9658;DHT22;4867;48.112;11.622;2023-07-28T01:18:43;15.90;99.90
9658;DHT22;4867;48.112;11.622;2023-07-28T01:21:20;15.90;99.90
9658;DHT22;4867;48.112;11.622;2023-07-28T01:24:01;15.90;99.90
9658;DHT22;4867;48.112;11.622;2023-07-28T01:26:35;15.90;99.90
9658;DHT22;4867;48.112;11.622;2023-07-28T01:29:04;15.90;99.90
9658;DHT22;4867;48.112;11.622;2023-07-28T01:31:31;15.90;99.90
9658;DHT22;4867;48.112;11.622;2023-07-28T01:33:59;15.90;99.90
9658;DHT22;4867;48.112;11.622;2023-07-28T01:36:26;15.80;99.90
9658;DHT22;4867;48.112;11.622;2023-07-28T01:38:53;15.80;99.90
9658;DHT22;4867;48.112;11.622;2023-07-28T01:41:21;15.80;99.90
9658;DHT22;4867;48.112;11.622;2023-07-28T01:43:48;15.70;99.90
9658;DHT22;4867;48.112;11.622;2023-07-28T01:46:15;15.70;99.90
9658;DHT22;4867;48.112;11.622;2023-07-28T01:48:43;15.70;99.90
9658;DHT22;4867;48.112;11.622;2023-07-28T01:51:10;15.60;99.90
9658;DHT22;4867;48.112;11.622;2023-07-28T01:53:37;15.60;99.90
9658;DHT22;4867;48.112;11.622;2023-07-28T01:56:04;15.60;99.90
9658;DHT22;4867;48.112;11.622;2023-07-28T01:58:32;15.60;99.90
9658;DHT22;4867;48.112;11.622;2023-07-28T02:00:59;15.50;99.90
9658;DHT22;4867;48.112;11.622;2023-07-28T02:03:26;15.50;99.90
9658;DHT22;4867;48.112;11.622;2023-07-28T02:05:54;15.40;99.90
9658;DHT22;4867;48.112;11.622;2023-07-28T02:08:21;15.40;99.90
9658;DHT22;4867;48.112;11.622;2023-07-28T02:10:49;15.30;99.90
9658;DHT22;4867;48.112;11.622;2023-07-28T02:13:16;15.20;99.90
9658;DHT22;4867;48.112;11.622;2023-07-28T02:15:43;15.20;99.90
9658;DHT22;4867;48.112;11.622;2023-07-28T02:18:10;15.10;99.90
9658;DHT22;4867;48.112;11.622;2023-07-28T02:20:38;15.20;99.90
9658;DHT22;4867;48.112;11.622;2023-07-28T02:23:06;15.10;99.90
9658;DHT22;4867;48.112;11.622;2023-07-28T02:25:33;15.00;99.90
9658;DHT22;4867;48.112;11.622;2023-07-28T02:28:00;15.00;99.90
9658;DHT22;4867;48.112;11.622;2023-07-28T02:30:28;15.00;99.90
9658;DHT22;4867;48.112;11.622;2023-07-28T02:32:56;15.00;99.90
9658;DHT22;4867;48.112;11.622;2023-07-28T02:35:23;15.10;99.90
9658;DHT22;4867;48.112;11.622;2023-07-28T02:37:50;15.10;99.90
9658;DHT22;4867;48.112;11.622;2023-07-28T02:40:18;15.00;99.90
9658;DHT22;4867;48.112;11.622;2023-07-28T02:42:45;15.00;99.90
9658;DHT22;4867;48.112;11.622;2023-07-28T02:45:12;15.00;99.90
9658;DHT22;4867;48.112;11.622;2023-07-28T02:47:39;15.00;99.90
9658;DHT22;4867;48.112;11.622;2023-07-28T02:50:07;14.90;99.90
9658;DHT22;4867;48.112;11.622;2023-07-28T02:52:34;14.90;99.90
9658;DHT22;4867;48.112;11.622;2023-07-28T02:55:01;14.90;99.90
9658;DHT22;4867;48.112;11.622;2023-07-28T02:57:29;14.90;99.90
9658;DHT22;4867;48.112;11.622;2023-07-28T02:59:56;14.90;99.90
9658;DHT22;4867;48.112;11.622;2023-07-28T03:02:23;14.90;99.90
9658;DHT22;4867;48.112;11.622;2023-07-28T03:04:53;14.90;99.90
9658;DHT22;4867;48.112;11.622;2023-07-28T03:07:39;14.90;99.90
9658;DHT22;4867;48.112;11.622;2023-07-28T03:10:09;14.90;99.90
9658;DHT22;4867;48.112;11.622;2023-07-28T03:12:38;14.90;99.90
9658;DHT22;4867;48.112;11.622;2023-07-28T03:15:05;14.90;99.90
9658;DHT22;4867;48.112;11.622;2023-07-28T03:17:33;14.90;99.90
9658;DHT22;4867;48.112;11.622;2023-07-28T03:20:01;15.00;99.90
9658;DHT22;4867;48.112;11.622;2023-07-28T03:22:28;14.90;99.90
9658;DHT22;4867;48.112;11.622;2023-07-28T03:24:57;14.90;99.90
9658;DHT22;4867;48.112;11.622;2023-07-28T03:27:24;14.90;99.90
9658;DHT22;4867;48.112;11.622;2023-07-28T03:29:51;15.00;99.90
9658;DHT22;4867;48.112;11.622;2023-07-28T03:32:21;15.00;99.90
9658;DHT22;4867;48.112;11.622;2023-07-28T03:34:48;15.00;99.90
9658;DHT22;4867;48.112;11.622;2023-07-28T03:37:19;15.00;99.90
9658;DHT22;4867;48.112;11.622;2023-07-28T03:39:46;15.00;99.90
9658;DHT22;4867;48.112;11.622;2023-07-28T03:42:14;15.00;99.90
9658;DHT22;4867;48.112;11.622;2023-07-28T03:44:42;15.00;99.90
9658;DHT22;4867;48.112;11.622;2023-07-28T03:47:09;15.00;99.90
9658;DHT22;4867;48.112;11.622;2023-07-28T03:49:37;15.10;99.90
9658;DHT22;4867;48.112;11.622;2023-07-28T03:52:04;15.10;99.90
9658;DHT22;4867;48.112;11.622;2023-07-28T03:54:32;15.10;99.90
9658;DHT22;4867;48.112;11.622;2023-07-28T03:56:59;15.20;99.90
9658;DHT22;4867;48.112;11.622;2023-07-28T03:59:26;15.30;99.90
9658;DHT22;4867;48.112;11.622;2023-07-28T04:01:53;15.30;99.90
9658;DHT22;4867;48.112;11.622;2023-07-28T04:04:21;15.40;99.90
9658;DHT22;4867;48.112;11.622;2023-07-28T04:06:49;15.40;99.90
9658;DHT22;4867;48.112;11.622;2023-07-28T04:09:22;15.50;99.90
9658;DHT22;4867;48.112;11.622;2023-07-28T04:11:49;15.50;99.90
9658;DHT22;4867;48.112;11.622;2023-07-28T04:14:17;15.70;99.90
9658;DHT22;4867;48.112;11.622;2023-07-28T04:16:44;15.70;99.90
9658;DHT22;4867;48.112;11.622;2023-07-28T04:19:13;15.80;99.90
9658;DHT22;4867;48.112;11.622;2023-07-28T04:21:40;15.90;99.90
9658;DHT22;4867;48.112;11.622;2023-07-28T04:24:09;15.90;99.90
9658;DHT22;4867;48.112;11.622;2023-07-28T04:26:43;16.00;99.90
9658;DHT22;4867;48.112;11.622;2023-07-28T04:29:10;16.20;99.90
9658;DHT22;4867;48.112;11.622;2023-07-28T04:31:37;16.50;99.90
9658;DHT22;4867;48.112;11.622;2023-07-28T04:34:08;16.60;99.90
9658;DHT22;4867;48.112;11.622;2023-07-28T04:36:56;16.80;99.90
9658;DHT22;4867;48.112;11.622;2023-07-28T04:39:26;16.90;99.90
9658;DHT22;4867;48.112;11.622;2023-07-28T04:41:53;16.90;99.90
9658;DHT22;4867;48.112;11.622;2023-07-28T04:44:20;16.90;99.90
9658;DHT22;4867;48.112;11.622;2023-07-28T04:46:51;16.90;99.90
9658;DHT22;4867;48.112;11.622;2023-07-28T04:49:19;16.90;99.90
9658;DHT22;4867;48.112;11.622;2023-07-28T04:52:07;16.90;99.90
9658;DHT22;4867;48.112;11.622;2023-07-28T04:54:57;17.00;99.90
9658;DHT22;4867;48.112;11.622;2023-07-28T04:57:24;17.10;99.90
9658;DHT22;4867;48.112;11.622;2023-07-28T04:59:52;17.30;99.90
9658;DHT22;4867;48.112;11.622;2023-07-28T05:02:19;17.50;99.90
9658;DHT22;4867;48.112;11.622;2023-07-28T05:04:46;17.50;99.90
9658;DHT22;4867;48.112;11.622;2023-07-28T05:07:14;17.50;99.90
9658;DHT22;4867;48.112;11.622;2023-07-28T05:09:41;17.40;99.90
9658;DHT22;4867;48.112;11.622;2023-07-28T05:12:08;17.40;99.90
9658;DHT22;4867;48.112;11.622;2023-07-28T05:14:42;17.40;99.90
9658;DHT22;4867;48.112;11.622;2023-07-28T05:17:11;17.40;99.90
9658;DHT22;4867;48.112;11.622;2023-07-28T05:19:50;17.40;99.90
9658;DHT22;4867;48.112;11.622;2023-07-28T05:22:36;17.40;99.90
9658;DHT22;4867;48.112;11.622;2023-07-28T05:25:04;17.40;99.90
9658;DHT22;4867;48.112;11.622;2023-07-28T05:27:38;17.40;99.90
9658;DHT22;4867;48.112;11.622;2023-07-28T05:30:06;17.50;99.90
9658;DHT22;4867;48.112;11.622;2023-07-28T05:32:34;17.60;99.90
9658;DHT22;4867;48.112;11.622;2023-07-28T05:35:15;17.60;99.90
9658;DHT22;4867;48.112;11.622;2023-07-28T05:37:42;17.70;99.90
9658;DHT22;4867;48.112;11.622;2023-07-28T05:40:10;17.70;99.90
9658;DHT22;4867;48.112;11.622;2023-07-28T05:42:38;17.80;99.90
9658;DHT22;4867;48.112;11.622;2023-07-28T05:45:06;17.90;99.90
9658;DHT22;4867;48.112;11.622;2023-07-28T05:47:34;18.00;99.90
9658;DHT22;4867;48.112;11.622;2023-07-28T05:50:01;18.10;99.90
9658;DHT22;4867;48.112;11.622;2023-07-28T05:52:31;18.20;99.90
9658;DHT22;4867;48.112;11.622;2023-07-28T05:54:58;18.30;99.90
9658;DHT22;4867;48.112;11.622;2023-07-28T05:57:26;18.40;99.90
9658;DHT22;4867;48.112;11.622;2023-07-28T05:59:53;18.60;99.90
9658;DHT22;4867;48.112;11.622;2023-07-28T06:02:21;18.80;99.90
9658;DHT22;4867;48.112;11.622;2023-07-28T06:04:54;18.90;99.90
9658;DHT22;4867;48.112;11.622;2023-07-28T06:07:22;19.20;99.90
9658;DHT22;4867;48.112;11.622;2023-07-28T06:09:49;19.40;99.90
9658;DHT22;4867;48.112;11.622;2023-07-28T06:12:16;19.40;99.90
9658;DHT22;4867;48.112;11.622;2023-07-28T06:14:44;19.30;99.90
9658;DHT22;4867;48.112;11.622;2023-07-28T06:17:12;19.30;99.90
9658;DHT22;4867;48.112;11.622;2023-07-28T06:19:39;19.30;99.90
9658;DHT22;4867;48.112;11.622;2023-07-28T06:22:07;19.20;99.90
9658;DHT22;4867;48.112;11.622;2023-07-28T06:24:39;19.20;99.90
9658;DHT22;4867;48.112;11.622;2023-07-28T06:27:07;19.30;99.90
9658;DHT22;4867;48.112;11.622;2023-07-28T06:29:37;19.40;99.90
9658;DHT22;4867;48.112;11.622;2023-07-28T06:32:05;19.50;99.90
9658;DHT22;4867;48.112;11.622;2023-07-28T06:34:33;19.60;99.90
9658;DHT22;4867;48.112;11.622;2023-07-28T06:37:00;19.80;99.90
9658;DHT22;4867;48.112;11.622;2023-07-28T06:39:28;19.90;99.90
9658;DHT22;4867;48.112;11.622;2023-07-28T06:41:57;20.00;99.90
9658;DHT22;4867;48.112;11.622;2023-07-28T06:44:26;20.10;99.90
9658;DHT22;4867;48.112;11.622;2023-07-28T06:46:53;20.10;99.90
9658;DHT22;4867;48.112;11.622;2023-07-28T06:49:20;20.10;99.90
9658;DHT22;4867;48.112;11.622;2023-07-28T06:51:48;20.10;99.90
9658;DHT22;4867;48.112;11.622;2023-07-28T06:54:17;20.30;99.90
9658;DHT22;4867;48.112;11.622;2023-07-28T06:56:45;20.20;99.90
9658;DHT22;4867;48.112;11.622;2023-07-28T06:59:12;20.50;99.90
9658;DHT22;4867;48.112;11.622;2023-07-28T07:01:45;20.50;99.90
9658;DHT22;4867;48.112;11.622;2023-07-28T07:04:13;20.70;99.90
9658;DHT22;4867;48.112;11.622;2023-07-28T07:06:40;20.60;99.90
9658;DHT22;4867;48.112;11.622;2023-07-28T07:09:08;20.70;99.90
9658;DHT22;4867;48.112;11.622;2023-07-28T07:11:36;20.90;99.90
9658;DHT22;4867;48.112;11.622;2023-07-28T07:14:04;21.00;99.90
9658;DHT22;4867;48.112;11.622;2023-07-28T07:16:32;21.20;99.90
9658;DHT22;4867;48.112;11.622;2023-07-28T07:18:59;21.60;99.90
9658;DHT22;4867;48.112;11.622;2023-07-28T07:21:29;21.80;99.90
9658;DHT22;4867;48.112;11.622;2023-07-28T07:23:57;21.90;99.90
9658;DHT22;4867;48.112;11.622;2023-07-28T07:26:27;21.90;99.90
9658;DHT22;4867;48.112;11.622;2023-07-28T07:28:54;21.90;99.90
9658;DHT22;4867;48.112;11.622;2023-07-28T07:31:21;21.90;99.90
9658;DHT22;4867;48.112;11.622;2023-07-28T07:33:49;21.90;99.90
9658;DHT22;4867;48.112;11.622;2023-07-28T07:36:18;22.00;99.90
9658;DHT22;4867;48.112;11.622;2023-07-28T07:38:45;22.10;99.90
9658;DHT22;4867;48.112;11.622;2023-07-28T07:41:14;22.10;99.90
9658;DHT22;4867;48.112;11.622;2023-07-28T07:43:48;22.20;99.90
9658;DHT22;4867;48.112;11.622;2023-07-28T07:46:16;22.20;99.90
9658;DHT22;4867;48.112;11.622;2023-07-28T07:48:44;22.40;99.90
9658;DHT22;4867;48.112;11.622;2023-07-28T07:51:11;22.60;99.90
9658;DHT22;4867;48.112;11.622;2023-07-28T07:53:39;22.90;99.90
9658;DHT22;4867;48.112;11.622;2023-07-28T07:56:07;23.00;99.90
9658;DHT22;4867;48.112;11.622;2023-07-28T07:58:37;23.00;99.90
9658;DHT22;4867;48.112;11.622;2023-07-28T08:01:04;23.10;99.90
9658;DHT22;4867;48.112;11.622;2023-07-28T08:03:39;23.40;99.90
9658;DHT22;4867;48.112;11.622;2023-07-28T08:06:06;23.50;99.90
9658;DHT22;4867;48.112;11.622;2023-07-28T08:08:35;23.50;99.90
9658;DHT22;4867;48.112;11.622;2023-07-28T08:11:02;23.50;99.90
9658;DHT22;4867;48.112;11.622;2023-07-28T08:13:29;23.70;99.90
9658;DHT22;4867;48.112;11.622;2023-07-28T08:15:57;23.70;99.90
9658;DHT22;4867;48.112;11.622;2023-07-28T08:18:24;23.80;99.90
9658;DHT22;4867;48.112;11.622;2023-07-28T08:20:51;23.80;99.90
9658;DHT22;4867;48.112;11.622;2023-07-28T08:23:18;23.80;99.90
9658;DHT22;4867;48.112;11.622;2023-07-28T08:25:46;23.80;99.90
9658;DHT22;4867;48.112;11.622;2023-07-28T08:28:13;23.90;99.90
9658;DHT22;4867;48.112;11.622;2023-07-28T08:30:40;23.90;99.90
9658;DHT22;4867;48.112;11.622;2023-07-28T08:33:08;24.10;99.90
9658;DHT22;4867;48.112;11.622;2023-07-28T08:35:35;24.40;99.90
9658;DHT22;4867;48.112;11.622;2023-07-28T08:38:02;24.60;99.90
9658;DHT22;4867;48.112;11.622;2023-07-28T08:40:30;25.00;99.90
9658;DHT22;4867;48.112;11.622;2023-07-28T08:42:57;25.10;99.90
9658;DHT22;4867;48.112;11.622;2023-07-28T08:45:25;25.20;99.90
9658;DHT22;4867;48.112;11.622;2023-07-28T08:47:52;25.10;99.90
9658;DHT22;4867;48.112;11.622;2023-07-28T08:50:20;25.10;99.90
9658;DHT22;4867;48.112;11.622;2023-07-28T08:52:47;25.00;99.90
9658;DHT22;4867;48.112;11.622;2023-07-28T08:55:16;25.00;99.90
9658;DHT22;4867;48.112;11.622;2023-07-28T08:57:44;25.20;99.90
9658;DHT22;4867;48.112;11.622;2023-07-28T09:00:11;25.50;99.90
9658;DHT22;4867;48.112;11.622;2023-07-28T09:02:42;25.70;99.90
9658;DHT22;4867;48.112;11.622;2023-07-28T09:05:21;26.00;99.90
9658;DHT22;4867;48.112;11.622;2023-07-28T09:07:51;26.10;99.90
9658;DHT22;4867;48.112;11.622;2023-07-28T09:10:19;26.00;99.90
9658;DHT22;4867;48.112;11.622;2023-07-28T09:12:50;26.10;99.90
9658;DHT22;4867;48.112;11.622;2023-07-28T09:15:18;25.90;99.90
9658;DHT22;4867;48.112;11.622;2023-07-28T09:17:45;25.80;99.90
9658;DHT22;4867;48.112;11.622;2023-07-28T09:20:14;25.80;99.90
9658;DHT22;4867;48.112;11.622;2023-07-28T09:22:45;25.60;99.90
9658;DHT22;4867;48.112;11.622;2023-07-28T09:25:16;25.40;99.90
9658;DHT22;4867;48.112;11.622;2023-07-28T09:27:52;25.20;99.90
9658;DHT22;4867;48.112;11.622;2023-07-28T09:30:21;25.00;99.90
9658;DHT22;4867;48.112;11.622;2023-07-28T09:32:53;24.80;99.90
9658;DHT22;4867;48.112;11.622;2023-07-28T09:35:22;24.60;99.90
9658;DHT22;4867;48.112;11.622;2023-07-28T09:37:50;24.40;99.90
9658;DHT22;4867;48.112;11.622;2023-07-28T09:40:21;24.30;99.90
9658;DHT22;4867;48.112;11.622;2023-07-28T09:42:49;24.30;99.90
9658;DHT22;4867;48.112;11.622;2023-07-28T09:45:22;24.20;99.90
9658;DHT22;4867;48.112;11.622;2023-07-28T09:48:06;24.30;99.90
9658;DHT22;4867;48.112;11.622;2023-07-28T09:50:38;24.30;99.90
9658;DHT22;4867;48.112;11.622;2023-07-28T09:53:08;24.30;99.90
9658;DHT22;4867;48.112;11.622;2023-07-28T09:55:39;24.30;99.90
9658;DHT22;4867;48.112;11.622;2023-07-28T09:58:10;24.40;99.90
9658;DHT22;4867;48.112;11.622;2023-07-28T10:00:41;24.50;99.90
9658;DHT22;4867;48.112;11.622;2023-07-28T10:03:09;24.50;99.90
9658;DHT22;4867;48.112;11.622;2023-07-28T10:05:37;24.60;99.90
9658;DHT22;4867;48.112;11.622;2023-07-28T10:08:05;24.70;99.90
9658;DHT22;4867;48.112;11.622;2023-07-28T10:10:34;24.80;99.90
9658;DHT22;4867;48.112;11.622;2023-07-28T10:13:01;24.80;99.90
9658;DHT22;4867;48.112;11.622;2023-07-28T10:15:31;25.00;99.90
9658;DHT22;4867;48.112;11.622;2023-07-28T10:17:59;25.10;99.90
9658;DHT22;4867;48.112;11.622;2023-07-28T10:20:36;25.30;99.90
9658;DHT22;4867;48.112;11.622;2023-07-28T10:23:14;25.40;99.90
9658;DHT22;4867;48.112;11.622;2023-07-28T10:25:43;25.40;99.90
9658;DHT22;4867;48.112;11.622;2023-07-28T10:28:28;25.30;99.90
9658;DHT22;4867;48.112;11.622;2023-07-28T10:31:00;25.20;99.90
9658;DHT22;4867;48.112;11.622;2023-07-28T10:33:31;25.10;99.90
9658;DHT22;4867;48.112;11.622;2023-07-28T10:35:59;25.10;99.90
9658;DHT22;4867;48.112;11.622;2023-07-28T10:38:37;25.00;99.90
9658;DHT22;4867;48.112;11.622;2023-07-28T10:41:15;24.90;99.90
9658;DHT22;4867;48.112;11.622;2023-07-28T10:43:45;24.90;99.90
9658;DHT22;4867;48.112;11.622;2023-07-28T10:46:16;24.90;99.90
9658;DHT22;4867;48.112;11.622;2023-07-28T10:48:49;24.90;99.90
9658;DHT22;4867;48.112;11.622;2023-07-28T10:51:24;24.80;99.90
9658;DHT22;4867;48.112;11.622;2023-07-28T10:53:56;24.80;99.90
9658;DHT22;4867;48.112;11.622;2023-07-28T10:56:25;24.70;99.90
9658;DHT22;4867;48.112;11.622;2023-07-28T10:58:57;24.80;99.90
9658;DHT22;4867;48.112;11.622;2023-07-28T11:01:35;24.80;99.90
9658;DHT22;4867;48.112;11.622;2023-07-28T11:04:21;24.80;99.90
9658;DHT22;4867;48.112;11.622;2023-07-28T11:06:50;24.70;99.90
9658;DHT22;4867;48.112;11.622;2023-07-28T11:09:21;24.90;99.90
9658;DHT22;4867;48.112;11.622;2023-07-28T11:11:50;24.90;99.90
9658;DHT22;4867;48.112;11.622;2023-07-28T11:14:18;25.10;99.90
9658;DHT22;4867;48.112;11.622;2023-07-28T11:16:46;25.20;99.90
9658;DHT22;4867;48.112;11.622;2023-07-28T11:19:15;25.40;99.90
9658;DHT22;4867;48.112;11.622;2023-07-28T11:21:52;25.40;99.90
9658;DHT22;4867;48.112;11.622;2023-07-28T11:24:20;25.40;99.90
9658;DHT22;4867;48.112;11.622;2023-07-28T11:26:49;25.40;99.90
9658;DHT22;4867;48.112;11.622;2023-07-28T11:29:18;25.40;99.90
9658;DHT22;4867;48.112;11.622;2023-07-28T11:31:47;25.50;99.90
9658;DHT22;4867;48.112;11.622;2023-07-28T11:34:18;25.50;99.90
9658;DHT22;4867;48.112;11.622;2023-07-28T11:36:46;25.50;99.90
9658;DHT22;4867;48.112;11.622;2023-07-28T11:39:13;25.50;99.90
9658;DHT22;4867;48.112;11.622;2023-07-28T11:41:42;25.60;99.90
9658;DHT22;4867;48.112;11.622;2023-07-28T11:44:10;25.40;99.90
9658;DHT22;4867;48.112;11.622;2023-07-28T11:46:41;25.40;99.90
9658;DHT22;4867;48.112;11.622;2023-07-28T11:51:54;25.60;99.90
9658;DHT22;4867;48.112;11.622;2023-07-28T11:54:24;25.80;99.90
9658;DHT22;4867;48.112;11.622;2023-07-28T11:56:55;26.00;99.90
9658;DHT22;4867;48.112;11.622;2023-07-28T11:59:23;26.10;99.90
9658;DHT22;4867;48.112;11.622;2023-07-28T12:02:03;26.20;99.90
9658;DHT22;4867;48.112;11.622;2023-07-28T12:04:39;26.20;99.90
9658;DHT22;4867;48.112;11.622;2023-07-28T12:07:15;26.10;99.90
9658;DHT22;4867;48.112;11.622;2023-07-28T12:12:14;26.00;99.90
9658;DHT22;4867;48.112;11.622;2023-07-28T12:14:44;26.20;99.90
9658;DHT22;4867;48.112;11.622;2023-07-28T12:17:34;26.20;99.90
9658;DHT22;4867;48.112;11.622;2023-07-28T12:20:08;26.30;99.90
9658;DHT22;4867;48.112;11.622;2023-07-28T12:22:43;26.50;99.90
9658;DHT22;4867;48.112;11.622;2023-07-28T12:25:11;26.60;99.90
9658;DHT22;4867;48.112;11.622;2023-07-28T12:27:39;26.50;99.90
9658;DHT22;4867;48.112;11.622;2023-07-28T12:30:06;26.50;99.90
9658;DHT22;4867;48.112;11.622;2023-07-28T12:32:40;26.50;99.90
9658;DHT22;4867;48.112;11.622;2023-07-28T12:35:28;26.70;99.90
9658;DHT22;4867;48.112;11.622;2023-07-28T12:38:02;26.70;99.90
9658;DHT22;4867;48.112;11.622;2023-07-28T12:40:36;26.50;99.90
9658;DHT22;4867;48.112;11.622;2023-07-28T12:43:06;26.30;99.90
9658;DHT22;4867;48.112;11.622;2023-07-28T12:45:34;26.30;99.90
9658;DHT22;4867;48.112;11.622;2023-07-28T12:48:04;26.20;99.90
9658;DHT22;4867;48.112;11.622;2023-07-28T12:50:31;26.10;99.90
9658;DHT22;4867;48.112;11.622;2023-07-28T12:53:02;26.10;99.90
9658;DHT22;4867;48.112;11.622;2023-07-28T12:55:43;26.30;99.90
9658;DHT22;4867;48.112;11.622;2023-07-28T12:58:13;26.60;99.90
9658;DHT22;4867;48.112;11.622;2023-07-28T13:00:44;26.70;99.90
9658;DHT22;4867;48.112;11.622;2023-07-28T13:03:14;26.80;99.90
9658;DHT22;4867;48.112;11.622;2023-07-28T13:05:41;26.80;99.90
9658;DHT22;4867;48.112;11.622;2023-07-28T13:08:14;26.80;99.90
9658;DHT22;4867;48.112;11.622;2023-07-28T13:10:41;26.60;99.90
9658;DHT22;4867;48.112;11.622;2023-07-28T13:13:11;26.50;99.90
9658;DHT22;4867;48.112;11.622;2023-07-28T13:15:41;26.50;99.90
9658;DHT22;4867;48.112;11.622;2023-07-28T13:18:08;26.50;99.90
9658;DHT22;4867;48.112;11.622;2023-07-28T13:20:35;26.50;99.90
9658;DHT22;4867;48.112;11.622;2023-07-28T13:23:03;26.50;99.90
9658;DHT22;4867;48.112;11.622;2023-07-28T13:25:30;26.50;99.90
9658;DHT22;4867;48.112;11.622;2023-07-28T13:27:57;26.60;99.90
9658;DHT22;4867;48.112;11.622;2023-07-28T13:30:25;26.60;99.90
9658;DHT22;4867;48.112;11.622;2023-07-28T13:32:56;26.60;99.90
9658;DHT22;4867;48.112;11.622;2023-07-28T13:35:23;26.50;99.90
9658;DHT22;4867;48.112;11.622;2023-07-28T13:37:52;26.30;99.90
9658;DHT22;4867;48.112;11.622;2023-07-28T13:40:19;26.20;99.90
9658;DHT22;4867;48.112;11.622;2023-07-28T13:42:47;26.10;99.90
9658;DHT22;4867;48.112;11.622;2023-07-28T13:45:14;26.10;99.90
9658;DHT22;4867;48.112;11.622;2023-07-28T13:47:42;26.20;99.90
9658;DHT22;4867;48.112;11.622;2023-07-28T13:50:09;26.20;99.90
9658;DHT22;4867;48.112;11.622;2023-07-28T13:52:37;26.20;99.90
9658;DHT22;4867;48.112;11.622;2023-07-28T13:55:04;26.30;99.90
9658;DHT22;4867;48.112;11.622;2023-07-28T13:57:35;26.20;99.90
9658;DHT22;4867;48.112;11.622;2023-07-28T14:00:03;26.20;99.90
9658;DHT22;4867;48.112;11.622;2023-07-28T14:02:31;26.10;99.90
9658;DHT22;4867;48.112;11.622;2023-07-28T14:04:58;25.90;99.90
9658;DHT22;4867;48.112;11.622;2023-07-28T14:07:25;25.70;99.90
9658;DHT22;4867;48.112;11.622;2023-07-28T14:09:52;25.70;99.90
9658;DHT22;4867;48.112;11.622;2023-07-28T14:12:20;25.50;99.90
9658;DHT22;4867;48.112;11.622;2023-07-28T14:14:47;25.30;99.90
9658;DHT22;4867;48.112;11.622;2023-07-28T14:17:14;25.30;99.90
9658;DHT22;4867;48.112;11.622;2023-07-28T14:19:42;25.10;99.90
9658;DHT22;4867;48.112;11.622;2023-07-28T14:22:09;24.80;99.90
9658;DHT22;4867;48.112;11.622;2023-07-28T14:24:36;24.30;99.90
9658;DHT22;4867;48.112;11.622;2023-07-28T14:27:05;23.60;99.90
9658;DHT22;4867;48.112;11.622;2023-07-28T14:29:32;22.90;99.90
9658;DHT22;4867;48.112;11.622;2023-07-28T14:31:59;22.50;99.90
9658;DHT22;4867;48.112;11.622;2023-07-28T14:34:26;22.20;99.90
9658;DHT22;4867;48.112;11.622;2023-07-28T14:36:54;22.00;99.90
9658;DHT22;4867;48.112;11.622;2023-07-28T14:39:21;21.70;99.90
9658;DHT22;4867;48.112;11.622;2023-07-28T14:41:48;21.60;99.90
9658;DHT22;4867;48.112;11.622;2023-07-28T14:44:15;21.60;99.90
9658;DHT22;4867;48.112;11.622;2023-07-28T14:46:44;21.60;99.90
9658;DHT22;4867;48.112;11.622;2023-07-28T14:49:11;21.70;99.90
9658;DHT22;4867;48.112;11.622;2023-07-28T14:51:39;21.70;99.90
9658;DHT22;4867;48.112;11.622;2023-07-28T14:54:06;21.90;99.90
9658;DHT22;4867;48.112;11.622;2023-07-28T14:56:33;22.10;99.90
9658;DHT22;4867;48.112;11.622;2023-07-28T14:59:00;22.30;99.90
9658;DHT22;4867;48.112;11.622;2023-07-28T15:01:30;22.60;99.90
9658;DHT22;4867;48.112;11.622;2023-07-28T15:03:58;22.90;99.90
9658;DHT22;4867;48.112;11.622;2023-07-28T15:06:26;23.20;99.90
9658;DHT22;4867;48.112;11.622;2023-07-28T15:08:53;23.30;99.90
9658;DHT22;4867;48.112;11.622;2023-07-28T15:11:21;23.70;99.90
9658;DHT22;4867;48.112;11.622;2023-07-28T15:13:48;23.90;99.90
9658;DHT22;4867;48.112;11.622;2023-07-28T15:16:15;24.20;99.90
9658;DHT22;4867;48.112;11.622;2023-07-28T15:18:43;24.50;99.90
9658;DHT22;4867;48.112;11.622;2023-07-28T15:21:12;24.70;99.90
9658;DHT22;4867;48.112;11.622;2023-07-28T15:23:39;24.80;99.90
9658;DHT22;4867;48.112;11.622;2023-07-28T15:26:06;24.70;99.90
9658;DHT22;4867;48.112;11.622;2023-07-28T15:28:34;24.60;99.90
9658;DHT22;4867;48.112;11.622;2023-07-28T15:31:01;24.70;99.90
9658;DHT22;4867;48.112;11.622;2023-07-28T15:33:28;24.70;99.90
9658;DHT22;4867;48.112;11.622;2023-07-28T15:35:57;24.80;99.90
9658;DHT22;4867;48.112;11.622;2023-07-28T15:38:25;24.60;99.90
9658;DHT22;4867;48.112;11.622;2023-07-28T15:40:52;24.50;99.90
9658;DHT22;4867;48.112;11.622;2023-07-28T15:43:24;24.30;99.90
9658;DHT22;4867;48.112;11.622;2023-07-28T15:45:51;24.30;99.90
9658;DHT22;4867;48.112;11.622;2023-07-28T15:48:21;24.40;99.90
9658;DHT22;4867;48.112;11.622;2023-07-28T15:50:48;24.50;99.90
9658;DHT22;4867;48.112;11.622;2023-07-28T15:53:16;24.70;99.90
9658;DHT22;4867;48.112;11.622;2023-07-28T15:55:44;24.80;99.90
9658;DHT22;4867;48.112;11.622;2023-07-28T15:58:11;25.00;99.90
9658;DHT22;4867;48.112;11.622;2023-07-28T16:00:39;25.00;99.90
9658;DHT22;4867;48.112;11.622;2023-07-28T16:03:06;25.10;99.90